createdAt,value
2022-11-08T00:00:42.959Z,8.50
2022-11-08T00:03:11.038Z,8.60
2022-11-08T00:05:57.430Z,8.60
2022-11-08T00:08:43.732Z,8.60
2022-11-08T00:11:30.071Z,8.60
2022-11-08T00:13:58.956Z,8.50
2022-11-08T00:16:28.334Z,8.40
2022-11-08T00:18:56.732Z,8.30
2022-11-08T00:21:25.098Z,8.30
2022-11-08T00:23:53.015Z,8.30
2022-11-08T00:26:20.979Z,8.30
2022-11-08T00:28:49.091Z,8.40
2022-11-08T00:31:17.079Z,8.50
2022-11-08T00:33:45.213Z,8.40
2022-11-08T00:36:13.186Z,8.40
2022-11-08T00:38:44.365Z,8.30
2022-11-08T00:41:12.800Z,8.10
2022-11-08T00:43:45.728Z,8.00
2022-11-08T00:46:13.614Z,7.90
2022-11-08T00:48:41.617Z,7.80
2022-11-08T00:51:12.164Z,7.80
2022-11-08T00:53:40.883Z,7.90
2022-11-08T00:56:12.392Z,7.80
2022-11-08T00:58:44.235Z,7.80
2022-11-08T01:01:20.189Z,7.80
2022-11-08T01:03:49.309Z,7.70
2022-11-08T01:06:20.098Z,7.80
2022-11-08T01:08:50.035Z,7.80
2022-11-08T01:11:23.309Z,7.70
2022-11-08T01:13:52.379Z,7.80
2022-11-08T01:16:22.913Z,7.80
2022-11-08T01:18:52.348Z,7.80
2022-11-08T01:21:20.346Z,7.80
2022-11-08T01:23:48.387Z,7.90
2022-11-08T01:26:19.222Z,7.90
2022-11-08T01:28:47.811Z,7.90
2022-11-08T01:31:18.215Z,8.00
2022-11-08T01:33:51.019Z,8.10
2022-11-08T01:36:22.738Z,8.20
2022-11-08T01:38:51.386Z,8.20
2022-11-08T01:41:21.976Z,8.30
2022-11-08T01:43:58.179Z,8.30
2022-11-08T01:46:33.366Z,8.30
2022-11-08T01:49:48.181Z,8.30
2022-11-08T01:52:21.862Z,8.10
2022-11-08T01:55:02.558Z,8.10
2022-11-08T01:57:40.360Z,8.00
2022-11-08T02:00:12.550Z,7.90
2022-11-08T02:02:43.756Z,7.90
2022-11-08T02:05:25.568Z,7.70
2022-11-08T02:08:01.984Z,7.70
2022-11-08T02:10:37.622Z,7.70
2022-11-08T02:13:14.453Z,7.70
2022-11-08T02:15:43.746Z,7.70
2022-11-08T02:18:13.189Z,7.70
2022-11-08T02:20:52.976Z,7.60
2022-11-08T02:23:45.701Z,7.60
2022-11-08T02:26:15.227Z,7.70
2022-11-08T02:28:45.741Z,7.80
2022-11-08T02:31:16.214Z,7.70
2022-11-08T02:33:45.118Z,7.70
2022-11-08T02:36:20.390Z,7.70
2022-11-08T02:38:55.349Z,7.70
2022-11-08T02:41:23.876Z,7.70
2022-11-08T02:43:52.014Z,7.70
2022-11-08T02:46:20.257Z,7.70
2022-11-08T02:48:48.350Z,7.60
2022-11-08T02:51:16.347Z,7.40
2022-11-08T02:53:44.528Z,7.30
2022-11-08T02:56:12.371Z,7.20
2022-11-08T02:58:40.286Z,7.10
2022-11-08T03:01:08.599Z,7.00
2022-11-08T03:03:36.656Z,7.00
2022-11-08T03:06:04.698Z,6.90
2022-11-08T03:08:33.126Z,6.90
2022-11-08T03:11:01.344Z,6.90
2022-11-08T03:13:29.235Z,6.90
2022-11-08T03:16:16.354Z,6.90
2022-11-08T03:18:44.672Z,6.90
2022-11-08T03:21:12.793Z,6.90
2022-11-08T03:23:40.829Z,6.80
2022-11-08T03:26:08.832Z,6.90
2022-11-08T03:28:37.145Z,7.00
2022-11-08T03:31:05.687Z,6.90
2022-11-08T03:33:37.043Z,6.90
2022-11-08T03:36:06.311Z,7.00
2022-11-08T03:38:34.223Z,7.10
2022-11-08T03:41:02.565Z,7.10
2022-11-08T03:43:30.467Z,7.10
2022-11-08T03:45:58.428Z,7.00
2022-11-08T03:48:26.572Z,6.90
2022-11-08T03:50:55.024Z,7.00
2022-11-08T03:53:23.211Z,7.00
2022-11-08T03:55:51.049Z,7.00
2022-11-08T03:58:19.187Z,7.00
2022-11-08T04:00:47.797Z,7.00
2022-11-08T04:03:16.289Z,7.00
2022-11-08T04:05:44.579Z,6.90
2022-11-08T04:08:12.545Z,7.00
2022-11-08T04:10:40.514Z,6.90
2022-11-08T04:13:28.432Z,7.00
2022-11-08T04:15:58.009Z,7.00
2022-11-08T04:18:45.013Z,7.00
2022-11-08T04:21:24.281Z,7.00
2022-11-08T04:23:52.894Z,7.00
2022-11-08T04:26:22.723Z,7.00
2022-11-08T04:28:50.775Z,6.90
2022-11-08T04:31:19.837Z,6.80
2022-11-08T04:33:47.736Z,6.80
2022-11-08T04:36:17.568Z,6.70
2022-11-08T04:38:49.642Z,6.80
2022-11-08T04:41:20.526Z,6.80
2022-11-08T04:43:50.443Z,6.90
2022-11-08T04:46:22.627Z,7.00
2022-11-08T04:48:52.793Z,7.00
2022-11-08T04:51:23.315Z,7.10
2022-11-08T04:53:51.630Z,7.10
2022-11-08T04:56:21.607Z,7.00
2022-11-08T04:58:54.748Z,7.10
2022-11-08T05:01:25.676Z,7.00
2022-11-08T05:03:54.784Z,7.00
2022-11-08T05:06:27.746Z,7.00
2022-11-08T05:08:57.608Z,6.80
2022-11-08T05:11:27.684Z,6.80
2022-11-08T05:13:56.455Z,6.80
2022-11-08T05:16:27.876Z,6.70
2022-11-08T05:18:56.287Z,6.70
2022-11-08T05:21:43.647Z,6.70
2022-11-08T05:24:14.144Z,6.60
2022-11-08T05:26:44.081Z,6.50
2022-11-08T05:29:13.879Z,6.50
2022-11-08T05:31:42.262Z,6.50
2022-11-08T05:34:10.261Z,6.40
2022-11-08T05:36:38.280Z,6.40
2022-11-08T05:39:06.442Z,6.50
2022-11-08T05:41:34.338Z,6.70
2022-11-08T05:44:02.457Z,6.80
2022-11-08T05:46:30.415Z,6.80
2022-11-08T05:48:58.710Z,6.90
2022-11-08T05:51:27.598Z,6.80
2022-11-08T05:53:55.579Z,6.80
2022-11-08T05:56:23.456Z,6.70
2022-11-08T05:58:51.741Z,6.70
2022-11-08T06:01:20.496Z,6.70
2022-11-08T06:03:50.948Z,6.80
2022-11-08T06:06:21.375Z,6.90
2022-11-08T06:08:51.499Z,6.90
2022-11-08T06:11:23.671Z,6.90
2022-11-08T06:13:53.474Z,7.30
2022-11-08T06:16:23.074Z,7.70
2022-11-08T06:18:51.003Z,7.90
2022-11-08T06:21:20.815Z,7.90
2022-11-08T06:23:52.879Z,8.00
2022-11-08T06:26:22.218Z,8.10
2022-11-08T06:28:50.419Z,8.40
2022-11-08T06:31:18.533Z,8.60
2022-11-08T06:33:46.494Z,8.60
2022-11-08T06:36:14.427Z,9.00
2022-11-08T06:38:42.448Z,8.90
2022-11-08T06:41:18.397Z,9.00
2022-11-08T06:43:46.367Z,9.30
2022-11-08T06:46:14.833Z,9.80
2022-11-08T06:48:42.767Z,9.80
2022-11-08T06:51:10.679Z,9.80
2022-11-08T06:53:38.849Z,10.00
2022-11-08T06:56:07.501Z,10.20
2022-11-08T06:58:36.337Z,10.40
2022-11-08T07:01:09.540Z,10.90
2022-11-08T07:03:37.642Z,10.80
2022-11-08T07:06:07.342Z,10.20
2022-11-08T07:08:36.046Z,10.20
2022-11-08T07:11:04.666Z,10.30
2022-11-08T07:13:33.099Z,10.70
2022-11-08T07:16:02.365Z,11.30
2022-11-08T07:18:30.364Z,11.20
2022-11-08T07:23:29.033Z,11.20
2022-11-08T07:25:59.835Z,11.20
2022-11-08T07:28:27.764Z,11.10
2022-11-08T07:31:00.124Z,11.10
2022-11-08T07:33:29.041Z,11.30
2022-11-08T07:35:57.638Z,11.70
2022-11-08T07:38:26.465Z,11.70
2022-11-08T07:41:02.360Z,11.50
2022-11-08T07:43:31.076Z,12.20
2022-11-08T07:46:11.085Z,12.00
2022-11-08T07:48:39.195Z,12.10
2022-11-08T07:51:07.966Z,12.20
2022-11-08T07:53:36.083Z,11.90
2022-11-08T07:56:04.607Z,12.20
2022-11-08T07:58:32.665Z,12.50
2022-11-08T08:01:03.663Z,13.30
2022-11-08T08:03:32.605Z,13.10
2022-11-08T08:06:01.814Z,13.00
2022-11-08T08:08:31.195Z,13.00
2022-11-08T08:11:01.449Z,13.10
2022-11-08T08:13:29.876Z,13.00
2022-11-08T08:16:00.929Z,13.10
2022-11-08T08:18:30.361Z,13.50
2022-11-08T08:20:58.848Z,13.60
2022-11-08T08:23:27.602Z,13.50
2022-11-08T08:25:56.837Z,13.40
2022-11-08T08:28:25.348Z,13.40
2022-11-08T08:30:53.715Z,13.60
2022-11-08T08:33:30.041Z,13.50
2022-11-08T08:36:01.449Z,14.10
2022-11-08T08:38:31.855Z,14.20
2022-11-08T08:41:01.057Z,14.10
2022-11-08T08:43:32.649Z,14.60
2022-11-08T08:46:10.305Z,14.90
2022-11-08T08:48:39.389Z,14.80
2022-11-08T08:51:07.796Z,15.30
2022-11-08T08:53:35.900Z,15.90
2022-11-08T08:56:08.659Z,15.90
2022-11-08T08:58:37.230Z,15.50
2022-11-08T09:03:58.593Z,15.60
2022-11-08T09:06:27.093Z,15.80
2022-11-08T09:08:55.104Z,15.90
2022-11-08T09:11:23.199Z,16.10
2022-11-08T09:13:52.002Z,16.20
2022-11-08T09:16:20.028Z,16.00
2022-11-08T09:18:48.125Z,16.40
2022-11-08T09:21:16.142Z,16.30
2022-11-08T09:23:45.026Z,16.40
2022-11-08T09:26:13.403Z,16.60
2022-11-08T09:28:41.960Z,17.20
2022-11-08T09:31:12.165Z,17.50
2022-11-08T09:33:41.445Z,17.40
2022-11-08T09:36:13.630Z,18.20
2022-11-08T09:38:42.191Z,17.80
2022-11-08T09:41:29.321Z,17.70
2022-11-08T09:44:14.866Z,16.60
2022-11-08T09:46:59.926Z,16.70
2022-11-08T09:49:34.208Z,16.40
2022-11-08T09:52:04.675Z,16.50
2022-11-08T09:54:47.050Z,16.20
2022-11-08T09:57:29.273Z,15.80
2022-11-08T10:00:06.795Z,15.90
2022-11-08T10:02:36.891Z,16.00
2022-11-08T10:05:11.484Z,16.30
2022-11-08T10:08:10.801Z,16.10
2022-11-08T10:11:05.761Z,16.10
2022-11-08T10:13:55.847Z,16.40
2022-11-08T10:16:27.733Z,16.60
2022-11-08T10:19:15.967Z,16.30
2022-11-08T10:21:46.853Z,16.40
2022-11-08T10:24:45.914Z,16.50
2022-11-08T10:27:19.878Z,16.70
2022-11-08T10:29:53.703Z,16.70
2022-11-08T10:32:25.240Z,17.00
2022-11-08T10:35:30.227Z,17.20
2022-11-08T10:38:00.153Z,17.20
2022-11-08T10:40:54.696Z,17.30
2022-11-08T10:43:34.415Z,17.00
2022-11-08T10:46:02.848Z,16.80
2022-11-08T10:48:39.057Z,16.90
2022-11-08T10:51:08.895Z,16.90
2022-11-08T10:53:44.665Z,17.10
2022-11-08T10:56:13.850Z,17.10
2022-11-08T10:58:43.911Z,16.90
2022-11-08T11:01:19.872Z,16.80
2022-11-08T11:03:50.213Z,16.90
2022-11-08T11:06:32.757Z,17.00
2022-11-08T11:09:03.969Z,17.10
2022-11-08T11:11:31.935Z,17.00
2022-11-08T11:14:16.529Z,16.90
2022-11-08T11:16:53.185Z,17.10
2022-11-08T11:19:22.099Z,17.30
2022-11-08T11:22:04.132Z,17.20
2022-11-08T11:24:34.059Z,17.00
2022-11-08T11:27:08.080Z,17.10
2022-11-08T11:29:39.351Z,17.20
2022-11-08T11:32:32.738Z,17.30
2022-11-08T11:35:07.642Z,17.30
2022-11-08T11:37:45.902Z,17.20
2022-11-08T11:40:34.099Z,17.30
2022-11-08T11:43:20.531Z,17.30
2022-11-08T11:46:08.272Z,17.40
2022-11-08T11:49:01.704Z,17.40
2022-11-08T11:51:31.942Z,17.30
2022-11-08T11:54:05.331Z,17.30
2022-11-08T11:57:11.505Z,17.40
2022-11-08T11:59:45.507Z,17.60
2022-11-08T12:02:22.591Z,17.50
2022-11-08T12:05:18.948Z,17.40
2022-11-08T12:08:15.106Z,17.40
2022-11-08T12:11:03.986Z,17.40
2022-11-08T12:13:54.144Z,17.50
2022-11-08T12:16:37.007Z,17.50
2022-11-08T12:19:26.999Z,17.40
2022-11-08T12:22:07.092Z,17.40
2022-11-08T12:25:02.548Z,17.20
2022-11-08T12:28:01.058Z,17.20
2022-11-08T12:31:17.981Z,17.40
2022-11-08T12:34:32.223Z,17.30
2022-11-08T12:37:21.697Z,17.30
2022-11-08T12:40:12.530Z,17.40
2022-11-08T12:43:05.838Z,17.50
2022-11-08T12:45:34.770Z,17.40
2022-11-08T12:48:23.110Z,17.40
2022-11-08T12:51:01.544Z,17.50
2022-11-08T12:54:12.587Z,17.50
2022-11-08T12:56:44.558Z,17.60
2022-11-08T12:59:35.011Z,17.60
2022-11-08T13:02:06.199Z,17.50
2022-11-08T13:04:43.500Z,17.50
2022-11-08T13:07:14.477Z,17.60
2022-11-08T13:09:46.923Z,17.60
2022-11-08T13:12:45.556Z,17.70
2022-11-08T13:15:19.635Z,17.70
2022-11-08T13:18:06.649Z,17.60
2022-11-08T13:20:52.974Z,17.60
2022-11-08T13:23:27.340Z,17.70
2022-11-08T13:26:10.673Z,17.80
2022-11-08T13:28:43.880Z,17.80
2022-11-08T13:31:27.304Z,17.80
2022-11-08T13:34:13.500Z,17.80
2022-11-08T13:36:55.599Z,17.70
2022-11-08T13:39:42.712Z,17.70
2022-11-08T13:42:16.949Z,17.80
2022-11-08T13:44:55.047Z,17.80
2022-11-08T13:47:37.001Z,17.80
2022-11-08T13:50:33.964Z,17.80
2022-11-08T13:53:11.622Z,17.70
2022-11-08T13:55:43.144Z,17.70
2022-11-08T13:58:32.970Z,17.70
2022-11-08T14:01:07.321Z,17.80
2022-11-08T14:03:35.565Z,17.80
2022-11-08T14:06:06.421Z,17.70
2022-11-08T14:09:02.714Z,17.80
2022-11-08T14:11:40.030Z,17.70
2022-11-08T14:14:36.029Z,17.70
2022-11-08T14:17:13.373Z,17.60
2022-11-08T14:19:44.865Z,17.60
2022-11-08T14:22:18.276Z,17.60
2022-11-08T14:24:47.985Z,17.60
2022-11-08T14:27:33.981Z,17.50
2022-11-08T14:30:04.032Z,17.50
2022-11-08T14:32:32.952Z,17.60
2022-11-08T14:35:25.907Z,17.60
2022-11-08T14:37:54.445Z,17.50
2022-11-08T14:40:29.337Z,17.50
2022-11-08T14:42:57.782Z,17.50
2022-11-08T14:45:30.035Z,17.60
2022-11-08T14:48:04.821Z,17.70
2022-11-08T14:50:34.581Z,17.70
2022-11-08T14:53:22.304Z,17.60
2022-11-08T14:56:16.958Z,17.60
2022-11-08T14:58:45.519Z,17.50
2022-11-08T15:01:15.463Z,17.50
2022-11-08T15:03:56.758Z,17.40
2022-11-08T15:06:48.763Z,17.20
2022-11-08T15:09:36.055Z,17.10
2022-11-08T15:12:07.882Z,16.90
2022-11-08T15:14:44.803Z,16.80
2022-11-08T15:17:36.801Z,16.70
2022-11-08T15:20:13.263Z,16.70
2022-11-08T15:22:44.268Z,16.70
2022-11-08T15:25:14.911Z,16.70
2022-11-08T15:27:51.255Z,16.60
2022-11-08T15:30:39.096Z,16.50
2022-11-08T15:33:23.792Z,16.20
2022-11-08T15:35:52.398Z,16.00
2022-11-08T15:38:26.327Z,15.80
2022-11-08T15:40:58.851Z,15.70
2022-11-08T15:43:32.709Z,15.50
2022-11-08T15:46:02.291Z,15.30
2022-11-08T15:48:30.705Z,15.20
2022-11-08T15:50:59.476Z,15.10
2022-11-08T15:53:28.304Z,14.90
2022-11-08T15:56:01.407Z,14.70
2022-11-08T15:58:36.430Z,14.50
2022-11-08T16:01:05.174Z,14.30
2022-11-08T16:03:34.854Z,14.20
2022-11-08T16:06:03.149Z,14.10
2022-11-08T16:08:31.325Z,14.10
2022-11-08T16:11:00.639Z,14.10
2022-11-08T16:13:33.669Z,14.00
2022-11-08T16:16:04.107Z,13.90
2022-11-08T16:18:34.293Z,13.80
2022-11-08T16:21:03.370Z,13.70
2022-11-08T16:23:31.238Z,13.60
2022-11-08T16:26:00.992Z,13.50
2022-11-08T16:28:34.959Z,13.30
2022-11-08T16:31:07.592Z,13.20
2022-11-08T16:33:36.829Z,13.00
2022-11-08T16:36:20.778Z,12.90
2022-11-08T16:38:52.791Z,12.90
2022-11-08T16:41:22.050Z,12.80
2022-11-08T16:43:50.047Z,12.70
2022-11-08T16:46:20.265Z,12.70
2022-11-08T16:48:53.120Z,12.70
2022-11-08T16:51:22.332Z,12.70
2022-11-08T16:53:50.294Z,12.70
2022-11-08T16:56:18.762Z,12.60
2022-11-08T16:58:46.877Z,12.50
2022-11-08T17:01:28.545Z,12.40
2022-11-08T17:03:56.686Z,12.40
2022-11-08T17:06:24.596Z,12.30
2022-11-08T17:08:52.622Z,12.30
2022-11-08T17:11:23.097Z,12.30
2022-11-08T17:13:52.820Z,12.30
2022-11-08T17:16:21.172Z,12.20
2022-11-08T17:18:52.985Z,12.00
2022-11-08T17:24:10.116Z,11.80
2022-11-08T17:26:38.149Z,11.80
2022-11-08T17:29:08.138Z,11.80
2022-11-08T17:31:36.054Z,11.80
2022-11-08T17:34:04.064Z,11.70
2022-11-08T17:36:32.020Z,11.70
2022-11-08T17:40:03.898Z,11.70
2022-11-08T17:41:50.129Z,11.70
2022-11-08T17:44:18.152Z,11.70
2022-11-08T17:46:50.186Z,11.70
2022-11-08T17:49:18.285Z,11.60
2022-11-08T17:51:46.360Z,11.60
2022-11-08T17:54:14.466Z,11.60
2022-11-08T17:56:42.539Z,11.60
2022-11-08T17:59:10.730Z,11.50
2022-11-08T18:01:39.010Z,11.40
2022-11-08T18:04:07.137Z,11.20
2022-11-08T18:06:35.213Z,11.00
2022-11-08T18:09:03.296Z,10.80
2022-11-08T18:11:31.627Z,10.80
2022-11-08T18:14:00.000Z,10.80
2022-11-08T18:16:29.828Z,10.80
2022-11-08T18:18:59.152Z,10.80
2022-11-08T18:21:27.078Z,10.80
2022-11-08T18:23:55.235Z,10.70
2022-11-08T18:26:23.133Z,10.90
2022-11-08T18:28:51.017Z,10.90
2022-11-08T18:31:20.885Z,11.00
2022-11-08T18:33:49.559Z,11.00
2022-11-08T18:36:21.032Z,11.00
2022-11-08T18:38:50.150Z,11.00
2022-11-08T18:41:25.293Z,11.10
2022-11-08T18:43:53.435Z,11.10
2022-11-08T18:46:23.864Z,11.10
2022-11-08T18:48:52.487Z,11.00
2022-11-08T18:51:22.372Z,10.90
2022-11-08T18:53:52.546Z,10.80
2022-11-08T18:56:21.231Z,10.70
2022-11-08T18:58:49.362Z,10.60
2022-11-08T19:01:18.020Z,10.50
2022-11-08T19:03:46.273Z,10.50
2022-11-08T19:06:14.339Z,10.60
2022-11-08T19:08:42.647Z,10.50
2022-11-08T19:11:12.148Z,10.60
2022-11-08T19:13:40.912Z,10.50
2022-11-08T19:16:14.157Z,10.40
2022-11-08T19:18:43.051Z,10.40
2022-11-08T19:21:15.399Z,10.30
2022-11-08T19:23:43.775Z,10.20
2022-11-08T19:26:20.178Z,10.20
2022-11-08T19:28:49.262Z,10.20
2022-11-08T19:31:19.732Z,10.30
2022-11-08T19:33:50.217Z,10.30
2022-11-08T19:36:21.229Z,10.30
2022-11-08T19:38:49.563Z,10.30
2022-11-08T19:41:20.886Z,10.20
2022-11-08T19:43:49.288Z,10.30
2022-11-08T19:46:27.134Z,10.20
2022-11-08T19:48:55.368Z,10.30
2022-11-08T19:51:25.368Z,10.30
2022-11-08T19:54:05.244Z,10.20
2022-11-08T19:59:23.056Z,10.10
2022-11-08T20:01:51.108Z,10.00
2022-11-08T20:04:19.756Z,10.00
2022-11-08T20:06:47.752Z,10.00
2022-11-08T20:09:15.850Z,10.10
2022-11-08T20:11:43.973Z,10.10
2022-11-08T20:14:13.089Z,10.00
2022-11-08T20:16:43.032Z,10.10
2022-11-08T20:19:16.624Z,10.00
2022-11-08T20:21:46.473Z,10.00
2022-11-08T20:24:15.599Z,9.90
2022-11-08T20:26:43.929Z,9.80
2022-11-08T20:29:12.504Z,9.70
2022-11-08T20:31:42.542Z,9.70
2022-11-08T20:34:13.156Z,9.60
2022-11-08T20:36:44.353Z,9.50
2022-11-08T20:39:14.629Z,9.50
2022-11-08T20:41:42.660Z,9.30
2022-11-08T20:44:11.037Z,9.10
2022-11-08T20:46:39.374Z,9.00
2022-11-08T20:49:07.637Z,9.00
2022-11-08T20:51:35.936Z,9.00
2022-11-08T20:54:04.543Z,9.00
2022-11-08T20:56:32.949Z,8.90
2022-11-08T20:59:01.635Z,8.90
2022-11-08T21:01:32.692Z,8.90
2022-11-08T21:04:01.246Z,8.90
2022-11-08T21:06:33.004Z,9.00
2022-11-08T21:09:16.927Z,8.90
2022-11-08T21:11:52.990Z,8.90
2022-11-08T21:14:21.251Z,9.00
2022-11-08T21:19:37.497Z,9.00
2022-11-08T21:22:17.548Z,9.00
2022-11-08T21:24:47.729Z,9.00
2022-11-08T21:27:16.692Z,8.80
2022-11-08T21:29:45.025Z,8.90
2022-11-08T21:32:13.055Z,8.90
2022-11-08T21:34:45.818Z,9.00
2022-11-08T21:37:14.365Z,9.00
2022-11-08T21:39:42.700Z,8.90
2022-11-08T21:42:10.977Z,9.00
2022-11-08T21:44:39.147Z,9.00
2022-11-08T21:47:07.186Z,9.00
2022-11-08T21:49:35.150Z,8.90
2022-11-08T21:52:03.724Z,8.80
2022-11-08T21:54:31.898Z,8.70
2022-11-08T21:57:00.295Z,8.70
2022-11-08T21:59:28.179Z,8.60
2022-11-08T22:01:56.293Z,8.60
2022-11-08T22:04:24.219Z,8.60
2022-11-08T22:06:52.279Z,8.60
2022-11-08T22:09:20.186Z,8.60
2022-11-08T22:11:48.518Z,8.50
2022-11-08T22:14:16.578Z,8.50
2022-11-08T22:16:44.468Z,8.40
2022-11-08T22:19:14.019Z,8.40
2022-11-08T22:21:44.340Z,8.30
2022-11-08T22:24:22.795Z,8.20
2022-11-08T22:26:52.071Z,8.10
2022-11-08T22:29:20.328Z,8.10
2022-11-08T22:31:48.789Z,8.10
2022-11-08T22:34:17.132Z,8.10
2022-11-08T22:36:46.075Z,8.20
2022-11-08T22:39:22.465Z,8.20
2022-11-08T22:41:53.167Z,8.20
2022-11-08T22:44:21.169Z,8.20
2022-11-08T22:46:49.873Z,8.30
2022-11-08T22:49:18.002Z,8.30
2022-11-08T22:51:46.146Z,8.40
2022-11-08T22:54:39.488Z,8.30
2022-11-08T22:57:08.120Z,8.30
2022-11-08T22:59:36.066Z,8.30
2022-11-08T23:02:04.061Z,8.30
2022-11-08T23:04:32.232Z,8.30
2022-11-08T23:07:00.224Z,8.30
2022-11-08T23:09:28.442Z,8.30
2022-11-08T23:12:14.618Z,8.30
2022-11-08T23:15:00.932Z,8.40
2022-11-08T23:17:31.268Z,8.40
2022-11-08T23:20:17.682Z,8.40
2022-11-08T23:23:04.573Z,8.40
2022-11-08T23:25:32.603Z,8.30
2022-11-08T23:28:19.235Z,8.30
2022-11-08T23:31:05.659Z,8.30
2022-11-08T23:33:33.605Z,8.20
2022-11-08T23:36:15.901Z,8.10
2022-11-08T23:38:44.423Z,8.20
2022-11-08T23:41:30.849Z,8.20
2022-11-08T23:44:17.230Z,8.10
2022-11-08T23:46:45.202Z,8.10
2022-11-08T23:49:13.112Z,8.00
2022-11-08T23:51:41.159Z,8.00
2022-11-08T23:54:09.190Z,8.00
2022-11-08T23:56:37.414Z,7.90
2022-11-08T23:59:05.684Z,7.80
